Time;durP1;ratioP1;P1;durP2;ratioP2;P2;SDS_P1;SDS_P2;PMS_P1;PMS_P2;Temp;Humidity;BMP_temperature;BMP_pressure;BME280_temperature;BME280_humidity;BME280_pressure;Samples;Min_cycle;Max_cycle;Signal;HPM_P1;HPM_P2
2023/03/13 00:00:19;;;;;;;;;;;8.20;99.90;;;;;;4939456;29;19933;-87
2023/03/13 00:02:49;;;;;;;;;;;5.70;99.90;;;;;;4939076;29;19926;-87
2023/03/13 00:05:14;;;;;;;;;;;8.20;99.90;;;;;;4948713;28;19934;-87
2023/03/13 00:07:42;;;;;;;;;;;7.90;99.90;;;;;;4937711;29;19926;-87
2023/03/13 00:10:08;;;;;;;;;;;8.10;99.90;;;;;;4955321;28;20294;-86
2023/03/13 00:12:34;;;;;;;;;;;8.00;99.90;;;;;;4944035;28;19934;-87
2023/03/13 00:14:59;;;;;;;;;;;8.10;99.90;;;;;;4948509;29;19999;-87
2023/03/13 00:17:28;;;;;;;;;;;8.00;99.90;;;;;;4945026;29;19934;-87
2023/03/13 00:19:54;;;;;;;;;;;8.10;99.90;;;;;;4939203;28;20279;-87
2023/03/13 00:22:20;;;;;;;;;;;8.20;99.90;;;;;;4952480;28;19933;-87
2023/03/13 00:24:46;;;;;;;;;;;7.80;99.90;;;;;;4945641;28;19926;-87
2023/03/13 00:27:11;;;;;;;;;;;8.00;99.90;;;;;;4938586;29;19944;-88
2023/03/13 00:29:39;;;;;;;;;;;8.30;99.90;;;;;;4954917;28;20058;-87
2023/03/13 00:32:05;;;;;;;;;;;7.80;99.90;;;;;;4938574;29;19935;-87
2023/03/13 00:34:31;;;;;;;;;;;8.00;99.90;;;;;;4962010;28;20302;-87
2023/03/13 00:36:56;;;;;;;;;;;7.70;99.90;;;;;;4954611;28;19933;-87
2023/03/13 00:39:22;;;;;;;;;;;7.80;99.90;;;;;;4937691;28;19926;-86
2023/03/13 00:41:47;;;;;;;;;;;7.70;99.90;;;;;;4954007;28;19926;-87
2023/03/13 00:44:15;;;;;;;;;;;7.70;99.90;;;;;;4954178;28;19930;-87
2023/03/13 00:46:41;;;;;;;;;;;7.70;99.90;;;;;;4957098;28;20303;-87
2023/03/13 00:49:09;;;;;;;;;;;7.90;99.90;;;;;;4954259;29;19926;-87
2023/03/13 00:51:37;;;;;;;;;;;7.90;99.90;;;;;;4938470;29;19981;-87
2023/03/13 00:54:03;;;;;;;;;;;7.80;99.90;;;;;;4937083;28;19927;-88
2023/03/13 00:56:29;;;;;;;;;;;7.90;99.90;;;;;;4954486;28;20005;-86
2023/03/13 00:58:57;;;;;;;;;;;7.70;99.90;;;;;;4954262;28;19927;-87
2023/03/13 01:01:33;;;;;;;;;;;7.00;99.90;;;;;;4954147;28;20009;-87
2023/03/13 01:04:00;;;;;;;;;;;7.70;99.90;;;;;;4954007;28;19926;-87
2023/03/13 01:06:28;;;;;;;;;;;6.70;99.90;;;;;;4937928;29;19927;-87
2023/03/13 01:08:54;;;;;;;;;;;7.90;99.90;;;;;;4952872;28;19931;-87
2023/03/13 01:11:21;;;;;;;;;;;7.70;99.90;;;;;;4933286;29;19934;-87
2023/03/13 01:13:47;;;;;;;;;;;7.60;99.90;;;;;;4938084;28;19927;-86
2023/03/13 01:16:14;;;;;;;;;;;7.70;99.90;;;;;;4969995;28;19927;-87
2023/03/13 01:18:42;;;;;;;;;;;6.10;99.90;;;;;;4949766;28;20021;-87
2023/03/13 01:21:07;;;;;;;;;;;7.70;99.90;;;;;;4938340;29;19933;-88
2023/03/13 01:23:33;;;;;;;;;;;7.70;99.90;;;;;;4952549;28;19935;-87
2023/03/13 01:25:59;;;;;;;;;;;8.00;99.90;;;;;;4937986;29;19977;-86
2023/03/13 01:28:25;;;;;;;;;;;8.30;99.90;;;;;;4937812;29;19934;-87
2023/03/13 01:30:51;;;;;;;;;;;8.00;99.90;;;;;;4954080;29;19927;-87
2023/03/13 01:33:17;;;;;;;;;;;7.70;99.90;;;;;;4955050;28;19973;-88
2023/03/13 01:35:45;;;;;;;;;;;7.70;99.90;;;;;;4941859;29;19974;-88
2023/03/13 01:38:13;;;;;;;;;;;8.10;99.90;;;;;;4940164;29;19934;-88
2023/03/13 01:40:40;;;;;;;;;;;9.90;99.90;;;;;;4957835;28;20294;-87
2023/03/13 01:43:32;;;;;;;;;;;8.10;99.90;;;;;;4973191;28;19926;-87
2023/03/13 01:46:00;;;;;;;;;;;7.70;99.90;;;;;;4954503;28;19926;-88
2023/03/13 01:48:44;;;;;;;;;;;7.80;99.90;;;;;;4957231;28;20305;-88
2023/03/13 01:51:15;;;;;;;;;;;7.80;99.90;;;;;;4953141;28;20303;-88
2023/03/13 01:53:43;;;;;;;;;;;7.80;99.90;;;;;;4937428;29;19934;-87
2023/03/13 01:56:10;;;;;;;;;;;7.80;99.90;;;;;;4957544;28;19926;-88
2023/03/13 01:58:38;;;;;;;;;;;8.50;99.90;;;;;;4941065;29;19927;-87
2023/03/13 02:01:05;;;;;;;;;;;8.00;99.90;;;;;;4957173;28;19977;-89
2023/03/13 02:03:31;;;;;;;;;;;7.90;99.90;;;;;;4940981;28;20018;-87
2023/03/13 02:06:00;;;;;;;;;;;7.90;99.90;;;;;;4973130;28;20098;-87
2023/03/13 02:08:30;;;;;;;;;;;8.10;99.90;;;;;;4961253;28;19933;-88
2023/03/13 02:11:16;;;;;;;;;;;7.90;99.90;;;;;;4961698;28;19931;-88
2023/03/13 02:13:42;;;;;;;;;;;8.10;99.90;;;;;;4962110;28;19926;-88
2023/03/13 02:16:08;;;;;;;;;;;8.20;99.90;;;;;;4941326;29;19978;-88
2023/03/13 02:18:35;;;;;;;;;;;7.90;99.90;;;;;;4956831;28;20009;-88
2023/03/13 02:21:08;;;;;;;;;;;8.40;99.90;;;;;;4957213;28;19927;-87
2023/03/13 02:23:39;;;;;;;;;;;7.80;99.90;;;;;;4939742;29;19981;-87
2023/03/13 02:26:05;;;;;;;;;;;8.00;99.90;;;;;;4972671;28;20016;-87
2023/03/13 02:28:32;;;;;;;;;;;7.90;99.90;;;;;;4940757;29;19927;-87
2023/03/13 02:30:58;;;;;;;;;;;8.50;99.90;;;;;;4939161;29;20013;-87
2023/03/13 02:33:34;;;;;;;;;;;8.10;99.90;;;;;;4956295;28;19973;-87
2023/03/13 02:36:01;;;;;;;;;;;6.60;99.90;;;;;;4940869;28;19993;-88
2023/03/13 02:38:28;;;;;;;;;;;10.20;99.90;;;;;;4955523;28;19997;-87
2023/03/13 02:40:55;;;;;;;;;;;7.80;99.90;;;;;;4940236;29;20013;-89
2023/03/13 02:43:31;;;;;;;;;;;7.80;99.90;;;;;;4940490;29;19927;-87
2023/03/13 02:46:01;;;;;;;;;;;7.90;99.90;;;;;;4939381;29;19988;-87
2023/03/13 02:48:33;;;;;;;;;;;7.90;99.90;;;;;;4940474;29;19927;-87
2023/03/13 02:51:00;;;;;;;;;;;7.90;99.90;;;;;;4956197;28;19933;-87
2023/03/13 02:53:26;;;;;;;;;;;6.60;99.90;;;;;;4950457;28;19930;-87
2023/03/13 02:55:51;;;;;;;;;;;7.90;99.90;;;;;;4959007;28;19934;-87
2023/03/13 02:58:19;;;;;;;;;;;7.90;99.90;;;;;;4957787;28;20005;-88
2023/03/13 03:00:45;;;;;;;;;;;8.20;99.90;;;;;;4974973;28;19927;-87
2023/03/13 03:03:11;;;;;;;;;;;8.00;99.90;;;;;;4940364;29;19926;-87
2023/03/13 03:05:38;;;;;;;;;;;8.00;99.90;;;;;;4940940;28;19926;-88
2023/03/13 03:08:04;;;;;;;;;;;8.30;99.90;;;;;;4940811;29;19981;-87
2023/03/13 03:10:34;;;;;;;;;;;8.00;99.90;;;;;;4959971;28;20026;-87
2023/03/13 03:12:59;;;;;;;;;;;8.30;99.90;;;;;;4962874;28;19915;-87
2023/03/13 03:15:25;;;;;;;;;;;8.10;99.90;;;;;;4957369;28;19935;-87
2023/03/13 03:17:51;;;;;;;;;;;8.00;99.90;;;;;;4957294;28;19926;-87
2023/03/13 03:20:19;;;;;;;;;;;8.80;99.90;;;;;;4956998;28;19927;-87
2023/03/13 03:22:44;;;;;;;;;;;8.20;99.90;;;;;;4927955;29;20378;-87
2023/03/13 03:25:12;;;;;;;;;;;8.20;99.90;;;;;;4956442;28;19934;-87
2023/03/13 03:27:38;;;;;;;;;;;8.20;99.90;;;;;;4961763;28;19933;-87
2023/03/13 03:30:04;;;;;;;;;;;8.50;99.90;;;;;;4956392;28;20294;-86
2023/03/13 03:32:30;;;;;;;;;;;8.30;99.90;;;;;;4939663;28;19926;-88
2023/03/13 03:34:55;;;;;;;;;;;8.20;99.90;;;;;;4955473;28;19989;-86
2023/03/13 03:37:21;;;;;;;;;;;8.20;99.90;;;;;;4938541;28;19937;-87
2023/03/13 03:39:47;;;;;;;;;;;8.20;99.90;;;;;;4955965;28;20017;-87
2023/03/13 03:42:12;;;;;;;;;;;8.40;99.90;;;;;;4938294;29;19954;-88
2023/03/13 03:44:38;;;;;;;;;;;6.10;99.90;;;;;;4955885;28;19937;-88
2023/03/13 03:47:06;;;;;;;;;;;8.20;99.90;;;;;;4954822;28;19937;-89
2023/03/13 03:49:32;;;;;;;;;;;8.30;99.90;;;;;;4939529;28;19926;-87
2023/03/13 03:52:00;;;;;;;;;;;8.80;99.90;;;;;;4955505;28;19997;-88
2023/03/13 03:54:26;;;;;;;;;;;8.50;99.90;;;;;;4938893;29;19930;-88
2023/03/13 03:56:51;;;;;;;;;;;8.40;99.90;;;;;;4948098;28;19974;-88
2023/03/13 03:59:17;;;;;;;;;;;8.60;99.90;;;;;;4954972;28;20426;-88
2023/03/13 04:01:43;;;;;;;;;;;8.90;99.90;;;;;;4955465;28;19926;-89
2023/03/13 04:04:11;;;;;;;;;;;8.50;99.90;;;;;;4941628;28;20482;-87
2023/03/13 04:06:37;;;;;;;;;;;8.70;99.90;;;;;;4940465;28;19995;-89
2023/03/13 04:09:03;;;;;;;;;;;8.70;99.90;;;;;;4950293;28;19931;-88
2023/03/13 04:11:29;;;;;;;;;;;8.50;99.90;;;;;;4954483;28;19926;-87
2023/03/13 04:13:55;;;;;;;;;;;8.70;99.90;;;;;;4954984;28;19933;-87
2023/03/13 04:16:23;;;;;;;;;;;8.80;99.90;;;;;;4955041;28;19930;-88
2023/03/13 04:18:51;;;;;;;;;;;8.60;99.90;;;;;;4954838;28;19930;-89
2023/03/13 04:21:16;;;;;;;;;;;8.90;99.90;;;;;;4939206;29;19990;-88
2023/03/13 04:23:42;;;;;;;;;;;9.10;99.90;;;;;;4953678;28;19934;-88
2023/03/13 04:26:07;;;;;;;;;;;9.20;99.90;;;;;;4954566;28;19933;-88
2023/03/13 04:28:33;;;;;;;;;;;9.10;99.90;;;;;;4943230;28;19930;-86
2023/03/13 04:31:00;;;;;;;;;;;9.10;99.90;;;;;;4942781;28;20017;-89
2023/03/13 04:33:25;;;;;;;;;;;9.00;99.90;;;;;;4938783;29;19970;-86
2023/03/13 04:35:54;;;;;;;;;;;9.00;99.90;;;;;;4951734;29;20417;-86
2023/03/13 04:38:20;;;;;;;;;;;8.50;99.90;;;;;;4969066;28;20418;-87
2023/03/13 04:40:48;;;;;;;;;;;7.70;99.90;;;;;;4938677;29;19969;-87
2023/03/13 04:43:14;;;;;;;;;;;9.20;99.90;;;;;;4969480;28;19930;-87
2023/03/13 04:45:45;;;;;;;;;;;9.60;99.90;;;;;;4938125;28;20021;-87
2023/03/13 04:48:13;;;;;;;;;;;9.60;99.90;;;;;;4962675;28;20005;-87
2023/03/13 04:50:39;;;;;;;;;;;9.70;99.90;;;;;;4957102;28;20021;-87
2023/03/13 04:53:05;;;;;;;;;;;9.90;99.90;;;;;;4963294;28;19926;-87
2023/03/13 04:55:30;;;;;;;;;;;9.50;99.90;;;;;;4964949;28;20287;-86
2023/03/13 04:57:56;;;;;;;;;;;9.50;99.90;;;;;;4954177;28;20013;-86
2023/03/13 05:00:22;;;;;;;;;;;9.80;99.90;;;;;;4949208;29;19927;-86
2023/03/13 05:02:50;;;;;;;;;;;9.60;99.90;;;;;;4954374;28;20338;-86
2023/03/13 05:05:24;;;;;;;;;;;7.70;99.90;;;;;;4954754;28;19984;-89
2023/03/13 05:07:50;;;;;;;;;;;9.60;99.90;;;;;;4954009;28;19927;-87
2023/03/13 05:10:15;;;;;;;;;;;9.80;99.90;;;;;;4954363;28;19934;-87
2023/03/13 05:12:50;;;;;;;;;;;8.10;99.90;;;;;;4959707;28;20049;-86
2023/03/13 05:15:16;;;;;;;;;;;9.90;99.90;;;;;;4938439;28;20282;-87
2023/03/13 05:17:42;;;;;;;;;;;9.90;99.90;;;;;;4953991;29;19931;-87
2023/03/13 05:20:10;;;;;;;;;;;10.00;99.90;;;;;;4953736;28;19930;-86
2023/03/13 05:22:38;;;;;;;;;;;9.90;99.90;;;;;;4952778;28;19926;-88
2023/03/13 05:25:07;;;;;;;;;;;9.00;99.90;;;;;;4938026;29;19933;-87
2023/03/13 05:27:35;;;;;;;;;;;10.10;99.90;;;;;;4953374;28;20016;-87
2023/03/13 05:30:04;;;;;;;;;;;10.40;99.90;;;;;;4953811;28;19927;-88
2023/03/13 05:32:31;;;;;;;;;;;10.20;99.90;;;;;;4958339;28;19933;-88
2023/03/13 05:34:57;;;;;;;;;;;10.30;99.90;;;;;;4952404;28;20347;-88
2023/03/13 05:37:23;;;;;;;;;;;10.30;99.90;;;;;;4936788;29;20018;-88
2023/03/13 05:39:49;;;;;;;;;;;10.70;99.90;;;;;;4937809;29;19974;-87
2023/03/13 05:42:17;;;;;;;;;;;10.50;99.90;;;;;;4942325;29;20028;-88
2023/03/13 05:44:45;;;;;;;;;;;10.50;99.90;;;;;;4970219;28;19940;-88
2023/03/13 05:47:13;;;;;;;;;;;10.80;99.90;;;;;;4923674;28;19933;-88
2023/03/13 05:49:39;;;;;;;;;;;11.00;99.90;;;;;;4938196;29;20026;-88
2023/03/13 05:52:07;;;;;;;;;;;10.70;99.90;;;;;;4953781;28;20036;-87
2023/03/13 05:54:33;;;;;;;;;;;10.80;99.90;;;;;;4953623;28;19933;-88
2023/03/13 05:57:01;;;;;;;;;;;10.70;99.90;;;;;;4937838;29;19926;-87
2023/03/13 05:59:29;;;;;;;;;;;10.80;99.90;;;;;;4959822;28;20394;-88
2023/03/13 06:01:54;;;;;;;;;;;9.30;99.90;;;;;;4953679;28;19927;-90
2023/03/13 06:04:22;;;;;;;;;;;10.70;99.90;;;;;;4954015;28;19998;-89
2023/03/13 06:06:50;;;;;;;;;;;10.70;99.90;;;;;;4963270;28;20293;-87
2023/03/13 06:09:16;;;;;;;;;;;10.70;99.90;;;;;;4951970;28;20263;-88
2023/03/13 06:11:42;;;;;;;;;;;10.10;99.90;;;;;;4936972;29;19930;-88
2023/03/13 06:14:08;;;;;;;;;;;10.60;99.90;;;;;;4954353;28;19927;-88
2023/03/13 06:16:33;;;;;;;;;;;10.70;99.90;;;;;;4954290;28;20370;-87
2023/03/13 06:19:02;;;;;;;;;;;10.70;99.90;;;;;;4938477;29;20345;-88
2023/03/13 06:21:27;;;;;;;;;;;9.20;99.90;;;;;;4962512;28;19996;-88
2023/03/13 06:23:53;;;;;;;;;;;10.70;99.90;;;;;;4957595;28;20390;-87
2023/03/13 06:26:24;;;;;;;;;;;10.70;99.90;;;;;;4941260;29;19978;-88
2023/03/13 06:28:54;;;;;;;;;;;12.10;99.90;;;;;;4940967;29;19927;-88
2023/03/13 06:31:19;;;;;;;;;;;11.10;99.90;;;;;;4941458;28;20013;-88
2023/03/13 06:33:45;;;;;;;;;;;10.60;99.90;;;;;;4940147;29;20393;-89
2023/03/13 06:36:16;;;;;;;;;;;9.10;99.90;;;;;;4945699;29;19941;-88
2023/03/13 06:38:42;;;;;;;;;;;12.40;99.90;;;;;;4939581;29;19938;-87
2023/03/13 06:41:08;;;;;;;;;;;10.80;99.90;;;;;;4974225;28;20070;-87
2023/03/13 06:43:33;;;;;;;;;;;10.80;99.90;;;;;;4937627;29;19930;-88
2023/03/13 06:46:03;;;;;;;;;;;10.80;99.90;;;;;;4956657;28;20013;-88
2023/03/13 06:48:29;;;;;;;;;;;10.60;99.90;;;;;;4953549;28;20017;-88
2023/03/13 06:50:55;;;;;;;;;;;10.80;99.90;;;;;;4957640;28;20021;-90
2023/03/13 06:53:21;;;;;;;;;;;11.00;99.90;;;;;;4955422;28;20311;-89
2023/03/13 06:55:47;;;;;;;;;;;10.90;99.90;;;;;;4964114;28;20013;-88
2023/03/13 06:58:17;;;;;;;;;;;10.90;99.90;;;;;;4946470;28;19952;-88
2023/03/13 07:00:46;;;;;;;;;;;11.20;99.90;;;;;;4975963;28;19926;-87
2023/03/13 07:03:14;;;;;;;;;;;10.90;99.90;;;;;;4963733;29;19990;-89
2023/03/13 07:05:39;;;;;;;;;;;11.00;99.90;;;;;;4971172;28;20268;-89
2023/03/13 07:08:08;;;;;;;;;;;9.20;99.90;;;;;;4957849;29;19946;-88
2023/03/13 07:10:34;;;;;;;;;;;10.20;99.90;;;;;;4973664;28;20399;-87
2023/03/13 07:12:59;;;;;;;;;;;11.00;99.90;;;;;;4966762;28;19934;-87
2023/03/13 07:15:25;;;;;;;;;;;10.90;99.90;;;;;;4940977;28;19932;-89
2023/03/13 07:17:50;;;;;;;;;;;11.20;99.90;;;;;;4958380;28;19926;-88
2023/03/13 07:20:16;;;;;;;;;;;11.00;99.90;;;;;;4955229;28;20889;-89
2023/03/13 07:22:42;;;;;;;;;;;11.20;99.90;;;;;;4938126;28;20033;-89
2023/03/13 07:25:08;;;;;;;;;;;11.10;99.90;;;;;;4959794;28;19926;-89
2023/03/13 07:27:34;;;;;;;;;;;11.10;99.90;;;;;;4948000;28;19937;-88
2023/03/13 07:30:02;;;;;;;;;;;9.30;99.90;;;;;;4972495;28;20009;-88
2023/03/13 07:32:32;;;;;;;;;;;11.30;99.90;;;;;;4940086;29;19926;-88
2023/03/13 07:34:57;;;;;;;;;;;11.00;99.90;;;;;;4940493;28;19970;-90
2023/03/13 07:37:23;;;;;;;;;;;11.20;99.90;;;;;;4945548;29;19985;-88
2023/03/13 07:39:49;;;;;;;;;;;11.10;99.90;;;;;;4936149;28;19933;-88
2023/03/13 07:42:14;;;;;;;;;;;9.50;99.90;;;;;;4941875;28;20496;-88
2023/03/13 07:44:40;;;;;;;;;;;11.20;99.90;;;;;;4968311;28;19926;-90
2023/03/13 07:47:06;;;;;;;;;;;11.10;99.90;;;;;;4944740;29;19926;-90
2023/03/13 07:49:32;;;;;;;;;;;9.20;99.90;;;;;;4936690;29;19937;-88
2023/03/13 07:51:58;;;;;;;;;;;11.30;99.90;;;;;;4955729;28;20421;-89
2023/03/13 07:54:24;;;;;;;;;;;11.00;99.90;;;;;;4944098;28;20013;-88
2023/03/13 07:56:50;;;;;;;;;;;11.10;99.90;;;;;;4940502;29;19931;-88
2023/03/13 07:59:16;;;;;;;;;;;10.90;99.90;;;;;;4935384;28;19927;-89
2023/03/13 08:01:41;;;;;;;;;;;10.90;99.90;;;;;;4956588;28;19934;-89
2023/03/13 08:04:11;;;;;;;;;;;11.10;99.90;;;;;;4935455;28;19936;-89
2023/03/13 08:06:41;;;;;;;;;;;10.90;99.90;;;;;;4943241;29;19927;-89
2023/03/13 08:09:08;;;;;;;;;;;8.90;99.90;;;;;;4942440;28;19931;-87
2023/03/13 08:11:34;;;;;;;;;;;11.30;99.90;;;;;;4943013;29;19993;-89
2023/03/13 08:14:00;;;;;;;;;;;11.30;99.90;;;;;;4954950;28;19926;-88
2023/03/13 08:16:30;;;;;;;;;;;11.40;99.90;;;;;;4963867;28;19926;-87
2023/03/13 08:19:07;;;;;;;;;;;11.00;99.90;;;;;;4952828;28;19927;-88
2023/03/13 08:21:34;;;;;;;;;;;11.00;99.90;;;;;;4937372;28;19926;-87
2023/03/13 08:24:04;;;;;;;;;;;11.00;99.90;;;;;;4939682;29;19926;-88
2023/03/13 08:26:30;;;;;;;;;;;11.00;99.90;;;;;;4956654;28;20025;-88
2023/03/13 08:29:00;;;;;;;;;;;11.20;99.90;;;;;;4938797;29;19931;-88
2023/03/13 08:31:27;;;;;;;;;;;11.20;99.90;;;;;;4955035;28;19937;-88
2023/03/13 08:33:53;;;;;;;;;;;11.40;99.90;;;;;;4954387;28;19926;-89
2023/03/13 08:36:22;;;;;;;;;;;11.50;99.90;;;;;;4935010;29;19930;-88
2023/03/13 08:38:47;;;;;;;;;;;13.10;99.90;;;;;;4953066;28;20401;-87
2023/03/13 08:41:17;;;;;;;;;;;11.80;99.90;;;;;;4954850;28;19932;-88
2023/03/13 08:43:46;;;;;;;;;;;11.70;99.90;;;;;;4937329;28;20042;-86
2023/03/13 08:46:12;;;;;;;;;;;11.70;99.90;;;;;;4970387;28;19934;-88
2023/03/13 08:48:38;;;;;;;;;;;9.80;99.90;;;;;;4970763;28;20370;-88
2023/03/13 08:51:14;;;;;;;;;;;11.70;99.90;;;;;;4963030;28;19937;-88
2023/03/13 08:53:42;;;;;;;;;;;11.90;99.90;;;;;;4951170;28;19926;-88
2023/03/13 08:56:09;;;;;;;;;;;11.90;99.90;;;;;;4922625;29;19926;-89
2023/03/13 08:58:38;;;;;;;;;;;12.20;99.90;;;;;;4938489;29;19926;-88
2023/03/13 09:01:05;;;;;;;;;;;12.00;99.90;;;;;;4954430;28;19952;-87
2023/03/13 09:03:31;;;;;;;;;;;12.70;99.90;;;;;;4937899;29;20021;-88
2023/03/13 09:06:03;;;;;;;;;;;11.20;99.90;;;;;;4942897;29;20011;-88
2023/03/13 09:08:29;;;;;;;;;;;12.10;99.90;;;;;;4953023;28;19927;-89
2023/03/13 09:10:58;;;;;;;;;;;12.20;99.90;;;;;;4938578;29;20016;-87
2023/03/13 09:13:25;;;;;;;;;;;12.40;99.90;;;;;;4945160;28;20283;-87
2023/03/13 09:16:06;;;;;;;;;;;12.70;99.90;;;;;;4937809;29;19926;-87
2023/03/13 09:18:41;;;;;;;;;;;12.80;99.90;;;;;;4940852;28;20394;-87
2023/03/13 09:21:08;;;;;;;;;;;12.40;99.90;;;;;;4954177;28;19926;-87
2023/03/13 09:23:34;;;;;;;;;;;12.30;99.90;;;;;;4958750;28;19931;-87
2023/03/13 09:26:02;;;;;;;;;;;12.30;99.90;;;;;;4960821;28;19926;-88
2023/03/13 09:28:28;;;;;;;;;;;12.30;99.90;;;;;;4953827;28;20386;-87
2023/03/13 09:30:56;;;;;;;;;;;12.30;99.90;;;;;;4938458;29;20065;-89
2023/03/13 09:33:25;;;;;;;;;;;12.00;99.90;;;;;;4939387;28;20056;-87
2023/03/13 09:35:53;;;;;;;;;;;12.50;99.90;;;;;;4940421;29;19926;-88
2023/03/13 09:38:19;;;;;;;;;;;12.00;99.90;;;;;;4952824;28;20386;-87
2023/03/13 09:40:49;;;;;;;;;;;12.10;99.90;;;;;;4938544;28;19933;-87
2023/03/13 09:43:37;;;;;;;;;;;12.00;99.90;;;;;;4961511;28;20379;-88
2023/03/13 09:46:05;;;;;;;;;;;12.00;99.90;;;;;;4960043;28;20286;-87
2023/03/13 09:48:43;;;;;;;;;;;10.50;99.90;;;;;;4953603;28;19955;-87
2023/03/13 09:51:15;;;;;;;;;;;11.90;99.90;;;;;;4938034;29;19926;-88
2023/03/13 09:53:43;;;;;;;;;;;12.00;99.90;;;;;;4952570;28;19980;-87
2023/03/13 09:56:16;;;;;;;;;;;12.00;99.90;;;;;;4941670;29;20347;-87
2023/03/13 09:58:47;;;;;;;;;;;11.90;99.90;;;;;;4940889;29;19937;-88
2023/03/13 10:01:19;;;;;;;;;;;12.00;99.90;;;;;;4941708;28;20256;-87
2023/03/13 10:04:04;;;;;;;;;;;11.90;99.90;;;;;;4941363;29;19926;-88
2023/03/13 10:06:35;;;;;;;;;;;12.40;99.90;;;;;;4957202;28;19933;-87
2023/03/13 10:09:01;;;;;;;;;;;12.50;99.90;;;;;;4949918;28;20412;-87
2023/03/13 10:11:32;;;;;;;;;;;12.90;99.90;;;;;;4957479;28;20282;-88
2023/03/13 10:14:05;;;;;;;;;;;12.80;99.90;;;;;;4948685;28;19934;-88
2023/03/13 10:16:39;;;;;;;;;;;12.70;99.90;;;;;;4954539;28;19927;-88
2023/03/13 10:19:10;;;;;;;;;;;12.70;99.90;;;;;;4969844;28;19926;-87
2023/03/13 10:21:37;;;;;;;;;;;12.80;99.90;;;;;;4957280;29;19973;-86
2023/03/13 10:24:29;;;;;;;;;;;12.80;99.90;;;;;;4940020;29;20283;-88
2023/03/13 10:26:55;;;;;;;;;;;13.30;99.90;;;;;;4945518;28;19946;-88
2023/03/13 10:29:22;;;;;;;;;;;13.20;99.90;;;;;;4963564;28;19973;-87
2023/03/13 10:31:53;;;;;;;;;;;13.20;99.90;;;;;;4957286;28;20013;-85
2023/03/13 10:34:19;;;;;;;;;;;13.50;99.90;;;;;;4956932;28;19933;-88
2023/03/13 10:36:46;;;;;;;;;;;13.50;99.90;;;;;;4956362;28;19926;-88
2023/03/13 10:39:30;;;;;;;;;;;13.50;99.90;;;;;;4939774;29;20041;-86
2023/03/13 10:41:57;;;;;;;;;;;13.50;99.90;;;;;;4964947;28;19933;-88
2023/03/13 10:44:29;;;;;;;;;;;13.50;99.90;;;;;;4956189;28;20370;-88
2023/03/13 10:46:58;;;;;;;;;;;13.60;99.90;;;;;;4935954;29;20010;-88
2023/03/13 10:49:26;;;;;;;;;;;13.50;99.90;;;;;;4955837;28;19934;-88
2023/03/13 10:51:55;;;;;;;;;;;13.50;99.90;;;;;;4959053;28;20262;-88
2023/03/13 10:54:26;;;;;;;;;;;13.50;99.90;;;;;;4939886;29;20069;-86
2023/03/13 10:56:54;;;;;;;;;;;13.50;99.90;;;;;;4937325;29;19926;-87
2023/03/13 10:59:24;;;;;;;;;;;13.40;99.90;;;;;;4956599;28;20021;-86
2023/03/13 11:01:51;;;;;;;;;;;13.70;99.90;;;;;;4954130;28;20037;-87
2023/03/13 11:04:19;;;;;;;;;;;13.50;99.90;;;;;;4953857;29;19978;-88
2023/03/13 11:06:49;;;;;;;;;;;13.50;99.90;;;;;;4952816;29;19927;-88
2023/03/13 11:09:16;;;;;;;;;;;13.50;99.90;;;;;;4949518;29;19974;-88
2023/03/13 11:11:44;;;;;;;;;;;13.60;99.90;;;;;;4965233;28;20016;-87
2023/03/13 11:14:30;;;;;;;;;;;13.60;99.90;;;;;;4958955;28;19927;-87
2023/03/13 11:17:11;;;;;;;;;;;13.70;99.90;;;;;;4964928;28;19926;-86
2023/03/13 11:19:55;;;;;;;;;;;13.60;99.90;;;;;;4956611;28;19934;-87
2023/03/13 11:22:36;;;;;;;;;;;13.70;99.90;;;;;;4969969;28;20383;-86
2023/03/13 11:25:10;;;;;;;;;;;13.80;99.90;;;;;;4941868;29;19926;-88
2023/03/13 11:27:55;;;;;;;;;;;13.80;99.90;;;;;;4964734;28;19926;-86
2023/03/13 11:30:30;;;;;;;;;;;13.80;99.90;;;;;;4940403;28;19965;-86
2023/03/13 11:33:03;;;;;;;;;;;13.80;99.90;;;;;;4955892;28;19937;-86
2023/03/13 11:35:31;;;;;;;;;;;13.70;99.90;;;;;;4955964;28;20270;-87
2023/03/13 11:38:02;;;;;;;;;;;13.60;99.90;;;;;;4954624;29;20008;-85
2023/03/13 11:40:33;;;;;;;;;;;13.70;99.90;;;;;;4955412;28;19926;-88
2023/03/13 11:43:08;;;;;;;;;;;12.60;99.90;;;;;;4955263;28;20035;-88
2023/03/13 11:45:52;;;;;;;;;;;13.80;99.90;;;;;;4951659;28;20381;-86
2023/03/13 11:48:18;;;;;;;;;;;14.00;99.90;;;;;;4955509;28;20374;-85
2023/03/13 11:50:51;;;;;;;;;;;14.00;99.90;;;;;;4955820;28;19982;-87
2023/03/13 11:53:52;;;;;;;;;;;16.10;99.90;;;;;;4934814;29;19926;-87
2023/03/13 11:56:26;;;;;;;;;;;14.10;99.90;;;;;;4900741;29;20433;-86
2023/03/13 11:59:10;;;;;;;;;;;14.10;99.90;;;;;;4927626;29;19927;-86
2023/03/13 12:01:40;;;;;;;;;;;14.30;99.90;;;;;;4970745;28;19927;-85
2023/03/13 12:04:32;;;;;;;;;;;14.20;99.90;;;;;;4957531;28;19927;-86
2023/03/13 12:07:04;;;;;;;;;;;14.20;99.90;;;;;;4981162;28;19933;-87
2023/03/13 12:09:41;;;;;;;;;;;14.60;99.90;;;;;;4947038;28;20371;-85
2023/03/13 12:12:25;;;;;;;;;;;14.40;99.90;;;;;;4957251;28;20371;-87
2023/03/13 12:15:09;;;;;;;;;;;14.50;99.90;;;;;;4936216;28;19978;-88
2023/03/13 12:17:41;;;;;;;;;;;14.40;99.90;;;;;;4966443;28;19927;-86
2023/03/13 12:20:18;;;;;;;;;;;14.50;99.90;;;;;;4939366;28;19927;-86
2023/03/13 12:22:48;;;;;;;;;;;14.60;99.90;;;;;;4938012;29;19941;-86
2023/03/13 12:25:20;;;;;;;;;;;14.60;99.90;;;;;;4970787;28;20399;-85
2023/03/13 12:27:48;;;;;;;;;;;14.60;99.90;;;;;;4938928;29;20021;-86
2023/03/13 12:30:24;;;;;;;;;;;14.50;99.90;;;;;;4955104;28;20301;-86
2023/03/13 12:33:16;;;;;;;;;;;14.40;99.90;;;;;;4954898;28;20020;-89
2023/03/13 12:35:53;;;;;;;;;;;14.40;99.90;;;;;;4956874;28;19934;-87
2023/03/13 12:38:24;;;;;;;;;;;14.40;99.90;;;;;;4938167;29;20389;-88
2023/03/13 12:41:00;;;;;;;;;;;14.60;99.90;;;;;;4962229;28;19969;-87
2023/03/13 12:43:29;;;;;;;;;;;14.70;99.90;;;;;;4936277;28;19926;-88
2023/03/13 12:45:55;;;;;;;;;;;14.70;99.90;;;;;;4959750;28;20358;-87
2023/03/13 12:48:56;;;;;;;;;;;13.30;99.90;;;;;;4961376;28;19927;-87
2023/03/13 12:51:25;;;;;;;;;;;13.80;99.90;;;;;;4899641;29;20280;-87
2023/03/13 12:53:53;;;;;;;;;;;14.30;99.90;;;;;;4958414;28;19933;-87
2023/03/13 12:56:39;;;;;;;;;;;14.30;99.90;;;;;;4966030;28;19926;-87
2023/03/13 12:59:16;;;;;;;;;;;14.30;99.90;;;;;;4941682;28;19970;-87
2023/03/13 13:01:44;;;;;;;;;;;14.40;99.90;;;;;;4954846;28;19930;-87
2023/03/13 13:04:11;;;;;;;;;;;14.50;99.90;;;;;;4937777;28;19927;-87
2023/03/13 13:06:49;;;;;;;;;;;14.40;99.90;;;;;;4938189;29;19982;-85
2023/03/13 13:09:25;;;;;;;;;;;14.80;99.90;;;;;;4955481;28;19934;-86
2023/03/13 13:11:55;;;;;;;;;;;14.80;99.90;;;;;;4953801;28;20294;-87
2023/03/13 13:14:29;;;;;;;;;;;14.80;99.90;;;;;;4975841;28;19974;-86
2023/03/13 13:17:13;;;;;;;;;;;15.00;99.90;;;;;;4958808;28;19926;-89
2023/03/13 13:19:41;;;;;;;;;;;14.90;99.90;;;;;;4954281;28;19926;-86
2023/03/13 13:22:26;;;;;;;;;;;14.80;99.90;;;;;;4953265;28;19995;-88
2023/03/13 13:24:55;;;;;;;;;;;13.80;99.90;;;;;;4963280;28;20291;-88
2023/03/13 13:27:44;;;;;;;;;;;14.80;99.90;;;;;;4937892;29;20723;-87
2023/03/13 13:30:29;;;;;;;;;;;14.80;99.90;;;;;;4955134;28;19937;-87
2023/03/13 13:33:15;;;;;;;;;;;14.80;99.90;;;;;;4970251;28;20506;-86
2023/03/13 13:35:43;;;;;;;;;;;14.00;99.90;;;;;;4953659;29;19926;-88
2023/03/13 13:38:28;;;;;;;;;;;14.70;99.90;;;;;;4938946;29;19927;-87
2023/03/13 13:41:01;;;;;;;;;;;13.60;99.90;;;;;;4923261;29;20023;-86
2023/03/13 13:43:30;;;;;;;;;;;14.70;99.90;;;;;;4925519;28;19926;-88
2023/03/13 13:45:59;;;;;;;;;;;14.80;99.90;;;;;;4937684;29;20065;-87
2023/03/13 13:48:32;;;;;;;;;;;14.60;99.90;;;;;;4937730;29;20013;-87
2023/03/13 13:51:09;;;;;;;;;;;14.70;99.90;;;;;;4951339;29;19927;-86
2023/03/13 13:53:41;;;;;;;;;;;14.60;99.90;;;;;;4966641;28;19933;-88
2023/03/13 13:56:26;;;;;;;;;;;16.10;99.90;;;;;;4953915;28;19927;-88
2023/03/13 13:58:55;;;;;;;;;;;14.70;99.90;;;;;;4961709;28;20366;-86
2023/03/13 14:01:20;;;;;;;;;;;14.70;99.90;;;;;;4953929;28;19931;-89
2023/03/13 14:03:46;;;;;;;;;;;14.60;99.90;;;;;;4936016;29;19977;-88
2023/03/13 14:06:27;;;;;;;;;;;14.40;99.90;;;;;;4929201;29;19926;-87
2023/03/13 14:08:58;;;;;;;;;;;14.20;99.90;;;;;;4931887;28;20216;-87
2023/03/13 14:11:30;;;;;;;;;;;14.20;99.90;;;;;;4976471;28;19937;-88
2023/03/13 14:14:16;;;;;;;;;;;14.20;99.90;;;;;;4930324;29;19926;-87
2023/03/13 14:16:48;;;;;;;;;;;14.30;99.90;;;;;;4937015;29;19930;-86
2023/03/13 14:19:44;;;;;;;;;;;14.30;99.90;;;;;;4942167;28;19985;-87
2023/03/13 14:22:15;;;;;;;;;;;14.40;99.90;;;;;;4927841;29;19927;-87
2023/03/13 14:24:56;;;;;;;;;;;14.50;99.90;;;;;;4938261;29;20414;-88
2023/03/13 14:27:21;;;;;;;;;;;14.60;99.90;;;;;;4953794;28;19982;-87
2023/03/13 14:30:01;;;;;;;;;;;14.60;99.90;;;;;;4953327;28;19970;-86
2023/03/13 14:32:26;;;;;;;;;;;14.70;99.90;;;;;;4960072;28;20382;-87
2023/03/13 14:34:52;;;;;;;;;;;14.70;99.90;;;;;;4936943;29;19926;-88